createdAt,value
2022-11-07T00:02:05.000Z,280.96
2022-11-07T00:03:32.000Z,280.96
2022-11-07T00:05:38.000Z,280.9
2022-11-07T00:08:29.000Z,280.96
2022-11-07T00:09:56.000Z,280.96
2022-11-07T00:12:02.000Z,280.96
2022-11-07T00:13:28.000Z,280.96
2022-11-07T00:15:35.000Z,280.9
2022-11-07T00:17:01.000Z,280.96
2022-11-07T00:19:07.000Z,280.96
2022-11-07T00:20:34.000Z,280.9
2022-11-07T00:22:40.000Z,280.9
2022-11-07T00:24:06.000Z,280.96
2022-11-07T00:26:12.000Z,280.9
2022-11-07T00:27:39.000Z,280.96
2022-11-07T00:29:45.000Z,280.9
2022-11-07T00:31:12.000Z,280.9
2022-11-07T00:33:18.000Z,280.9
2022-11-07T00:34:44.000Z,280.9
2022-11-07T00:36:50.000Z,280.96
2022-11-07T00:38:17.000Z,280.96
2022-11-07T00:40:23.000Z,280.96
2022-11-07T00:41:49.000Z,280.96
2022-11-07T00:43:55.000Z,280.9
2022-11-07T00:46:46.000Z,280.96
2022-11-07T00:48:13.000Z,280.96
2022-11-07T00:50:19.000Z,280.96
2022-11-07T00:51:46.000Z,280.96
2022-11-07T00:53:52.000Z,280.96
2022-11-07T00:55:18.000Z,280.96
2022-11-07T00:57:24.000Z,280.9
2022-11-07T00:58:51.000Z,280.9
2022-11-07T01:00:57.000Z,281.02
2022-11-07T01:02:23.000Z,281.02
2022-11-07T01:04:30.000Z,281.02
2022-11-07T01:05:56.000Z,280.96
2022-11-07T01:08:02.000Z,280.96
2022-11-07T01:09:29.000Z,280.96
2022-11-07T01:11:35.000Z,280.96
2022-11-07T01:13:02.000Z,280.9
2022-11-07T01:15:08.000Z,280.9
2022-11-07T01:16:34.000Z,280.96
2022-11-07T01:18:40.000Z,281.02
2022-11-07T01:20:07.000Z,280.96
2022-11-07T01:22:13.000Z,281.02
2022-11-07T01:25:04.000Z,281.02
2022-11-07T01:26:30.000Z,281.09
2022-11-07T01:28:37.000Z,281.09
2022-11-07T01:30:03.000Z,281.09
2022-11-07T01:32:09.000Z,281.09
2022-11-07T01:33:36.000Z,281.09
2022-11-07T01:35:42.000Z,281.09
2022-11-07T01:37:08.000Z,281.15
2022-11-07T01:39:15.000Z,281.15
2022-11-07T01:40:41.000Z,281.15
2022-11-07T01:42:47.000Z,281.21
2022-11-07T01:44:14.000Z,281.21
2022-11-07T01:46:20.000Z,281.21
2022-11-07T01:47:46.000Z,281.21
2022-11-07T01:49:52.000Z,281.21
2022-11-07T01:51:19.000Z,281.21
2022-11-07T01:53:25.000Z,281.21
2022-11-07T01:54:51.000Z,281.21
2022-11-07T01:56:57.000Z,281.21
2022-11-07T01:58:24.000Z,281.21
2022-11-07T02:00:30.000Z,281.21
2022-11-07T02:03:21.000Z,281.27
2022-11-07T02:04:48.000Z,281.27
2022-11-07T02:06:54.000Z,281.27
2022-11-07T02:08:20.000Z,281.34
2022-11-07T02:10:26.000Z,281.27
2022-11-07T02:11:53.000Z,281.27
2022-11-07T02:13:59.000Z,281.27
2022-11-07T02:15:25.000Z,281.27
2022-11-07T02:17:32.000Z,281.27
2022-11-07T02:18:58.000Z,281.27
2022-11-07T02:21:04.000Z,281.34
2022-11-07T02:22:31.000Z,281.34
2022-11-07T02:24:37.000Z,281.34
2022-11-07T02:26:03.000Z,281.34
2022-11-07T02:28:09.000Z,281.34
2022-11-07T02:29:36.000Z,281.4
2022-11-07T02:31:42.000Z,281.4
2022-11-07T02:33:08.000Z,281.4
2022-11-07T02:35:15.000Z,281.4
2022-11-07T02:36:41.000Z,281.4
2022-11-07T02:38:47.000Z,281.34
2022-11-07T02:41:39.000Z,281.34
2022-11-07T02:43:05.000Z,281.4
2022-11-07T02:45:11.000Z,281.4
2022-11-07T02:46:38.000Z,281.4
2022-11-07T02:48:44.000Z,281.34
2022-11-07T02:50:11.000Z,281.27
2022-11-07T02:52:17.000Z,281.27
2022-11-07T02:53:43.000Z,281.21
2022-11-07T02:55:49.000Z,281.21
2022-11-07T02:57:16.000Z,281.21
2022-11-07T02:59:22.000Z,281.21
2022-11-07T03:00:51.000Z,281.15
2022-11-07T03:02:57.000Z,281.15
2022-11-07T03:04:24.000Z,281.21
2022-11-07T03:06:30.000Z,281.15
2022-11-07T03:07:57.000Z,281.21
2022-11-07T03:10:03.000Z,281.21
2022-11-07T03:11:29.000Z,281.21
2022-11-07T03:13:35.000Z,281.27
2022-11-07T03:15:02.000Z,281.21
2022-11-07T03:17:08.000Z,281.21
2022-11-07T03:19:59.000Z,281.21
2022-11-07T03:21:26.000Z,281.27
2022-11-07T03:23:32.000Z,281.27
2022-11-07T03:24:58.000Z,281.27
2022-11-07T03:27:04.000Z,281.27
2022-11-07T03:28:31.000Z,281.34
2022-11-07T03:30:37.000Z,281.34
2022-11-07T03:32:04.000Z,281.34
2022-11-07T03:34:10.000Z,281.34
2022-11-07T03:35:36.000Z,281.4
2022-11-07T03:37:42.000Z,281.46
2022-11-07T03:39:09.000Z,281.52
2022-11-07T03:41:15.000Z,281.46
2022-11-07T03:42:41.000Z,281.46
2022-11-07T03:44:47.000Z,281.46
2022-11-07T03:46:14.000Z,281.52
2022-11-07T03:48:20.000Z,281.46
2022-11-07T03:49:47.000Z,281.4
2022-11-07T03:51:53.000Z,281.4
2022-11-07T03:53:19.000Z,281.4
2022-11-07T03:55:30.000Z,281.4
2022-11-07T03:58:21.000Z,281.34
2022-11-07T03:59:47.000Z,281.4
2022-11-07T04:01:53.000Z,281.34
2022-11-07T04:03:20.000Z,281.4
2022-11-07T04:05:26.000Z,281.46
2022-11-07T04:06:53.000Z,281.52
2022-11-07T04:08:59.000Z,281.59
2022-11-07T04:10:25.000Z,281.59
2022-11-07T04:12:32.000Z,281.65
2022-11-07T04:13:58.000Z,281.65
2022-11-07T04:16:04.000Z,281.65
2022-11-07T04:17:31.000Z,281.71
2022-11-07T04:19:37.000Z,281.77
2022-11-07T04:21:03.000Z,281.77
2022-11-07T04:23:09.000Z,281.84
2022-11-07T04:24:36.000Z,281.84
2022-11-07T04:26:49.000Z,281.84
2022-11-07T04:28:16.000Z,281.84
2022-11-07T04:30:22.000Z,281.84
2022-11-07T04:31:48.000Z,281.84
2022-11-07T04:33:54.000Z,281.84
2022-11-07T04:36:45.000Z,281.84
2022-11-07T04:38:12.000Z,281.84
2022-11-07T04:40:18.000Z,281.84
2022-11-07T04:41:45.000Z,281.84
2022-11-07T04:43:51.000Z,281.77
2022-11-07T04:45:17.000Z,281.84
2022-11-07T04:47:23.000Z,281.84
2022-11-07T04:48:50.000Z,281.9
2022-11-07T04:50:56.000Z,281.9
2022-11-07T04:52:22.000Z,281.84
2022-11-07T04:54:29.000Z,281.9
2022-11-07T04:55:55.000Z,281.9
2022-11-07T04:58:01.000Z,281.96
2022-11-07T04:59:28.000Z,282.02
2022-11-07T05:01:34.000Z,281.96
2022-11-07T05:03:00.000Z,282.02
2022-11-07T05:05:07.000Z,282.02
2022-11-07T05:06:33.000Z,282.02
2022-11-07T05:08:39.000Z,282.15
2022-11-07T05:10:06.000Z,282.15
2022-11-07T05:12:16.000Z,282.09
2022-11-07T05:15:07.000Z,282.21
2022-11-07T05:16:34.000Z,282.21
2022-11-07T05:18:40.000Z,282.15
2022-11-07T05:20:06.000Z,282.09
2022-11-07T05:22:12.000Z,282.09
2022-11-07T05:23:39.000Z,282.21
2022-11-07T05:25:45.000Z,282.27
2022-11-07T05:27:11.000Z,282.21
2022-11-07T05:29:17.000Z,282.21
2022-11-07T05:30:44.000Z,282.21
2022-11-07T05:32:50.000Z,282.21
2022-11-07T05:34:17.000Z,282.27
2022-11-07T05:36:23.000Z,282.21
2022-11-07T05:37:49.000Z,282.21
2022-11-07T05:39:55.000Z,282.15
2022-11-07T05:41:22.000Z,282.09
2022-11-07T05:43:28.000Z,282.15
2022-11-07T05:44:54.000Z,282.09
2022-11-07T05:47:00.000Z,282.15
2022-11-07T05:48:27.000Z,282.21
2022-11-07T05:50:33.000Z,282.21
2022-11-07T05:53:24.000Z,282.4
2022-11-07T05:54:51.000Z,282.4
2022-11-07T05:56:57.000Z,282.27
2022-11-07T05:58:24.000Z,282.27
2022-11-07T06:00:30.000Z,282.27
2022-11-07T06:01:56.000Z,282.27
2022-11-07T06:04:03.000Z,282.21
2022-11-07T06:05:29.000Z,282.27
2022-11-07T06:07:35.000Z,282.27
2022-11-07T06:09:02.000Z,282.27
2022-11-07T06:11:08.000Z,282.34
2022-11-07T06:12:34.000Z,282.34
2022-11-07T06:14:40.000Z,282.34
2022-11-07T06:16:07.000Z,282.34
2022-11-07T06:18:13.000Z,282.34
2022-11-07T06:19:39.000Z,282.34
2022-11-07T06:21:45.000Z,282.27
2022-11-07T06:23:12.000Z,282.27
2022-11-07T06:25:19.000Z,282.34
2022-11-07T06:26:45.000Z,282.46
2022-11-07T06:28:52.000Z,282.52
2022-11-07T06:31:43.000Z,282.4
2022-11-07T06:33:09.000Z,282.46
2022-11-07T06:35:16.000Z,282.46
2022-11-07T06:36:43.000Z,282.52
2022-11-07T06:38:58.000Z,282.59
2022-11-07T06:40:24.000Z,282.59
2022-11-07T06:42:30.000Z,282.59
2022-11-07T06:43:57.000Z,282.71
2022-11-07T06:46:03.000Z,282.71
2022-11-07T06:47:29.000Z,282.71
2022-11-07T06:49:36.000Z,282.71
2022-11-07T06:51:02.000Z,282.71
2022-11-07T06:53:08.000Z,282.71
2022-11-07T06:54:35.000Z,282.77
2022-11-07T06:56:41.000Z,282.71
2022-11-07T06:58:08.000Z,282.84
2022-11-07T07:00:14.000Z,282.84
2022-11-07T07:01:40.000Z,282.9
2022-11-07T07:03:47.000Z,282.96
2022-11-07T07:05:13.000Z,282.9
2022-11-07T07:07:25.000Z,282.9
2022-11-07T07:10:16.000Z,282.96
2022-11-07T07:11:42.000Z,283.02
2022-11-07T07:13:49.000Z,283.02
2022-11-07T07:15:15.000Z,282.96
2022-11-07T07:17:21.000Z,283.09
2022-11-07T07:18:48.000Z,283.09
2022-11-07T07:20:54.000Z,283.09
2022-11-07T07:22:20.000Z,283.09
2022-11-07T07:24:26.000Z,283.09
2022-11-07T07:25:53.000Z,282.96
2022-11-07T07:27:59.000Z,283.02
2022-11-07T07:29:26.000Z,283.02
2022-11-07T07:31:32.000Z,283.02
2022-11-07T07:32:58.000Z,283.09
2022-11-07T07:35:05.000Z,283.09
2022-11-07T07:36:31.000Z,283.09
2022-11-07T07:38:37.000Z,283.15
2022-11-07T07:40:04.000Z,283.09
2022-11-07T07:42:10.000Z,283.09
2022-11-07T07:43:37.000Z,283.02
2022-11-07T07:45:43.000Z,283.09
2022-11-07T07:48:34.000Z,283.15
2022-11-07T07:50:00.000Z,283.21
2022-11-07T07:52:06.000Z,283.15
2022-11-07T07:53:33.000Z,283.27
2022-11-07T07:55:39.000Z,283.27
2022-11-07T07:57:05.000Z,283.27
2022-11-07T07:59:12.000Z,283.34
2022-11-07T08:00:38.000Z,283.27
2022-11-07T08:02:45.000Z,283.34
2022-11-07T08:04:11.000Z,283.4
2022-11-07T08:06:17.000Z,283.4
2022-11-07T08:07:44.000Z,283.46
2022-11-07T08:09:50.000Z,283.46
2022-11-07T08:11:17.000Z,283.46
2022-11-07T08:13:23.000Z,283.46
2022-11-07T08:14:49.000Z,283.46
2022-11-07T08:16:55.000Z,283.46
2022-11-07T08:18:22.000Z,283.4
2022-11-07T08:20:28.000Z,283.4
2022-11-07T08:21:54.000Z,283.52
2022-11-07T08:24:01.000Z,283.46
2022-11-07T08:26:52.000Z,283.59
2022-11-07T08:28:18.000Z,283.59
2022-11-07T08:30:24.000Z,283.59
2022-11-07T08:31:51.000Z,283.59
2022-11-07T08:33:57.000Z,283.52
2022-11-07T08:35:23.000Z,283.59
2022-11-07T08:37:30.000Z,283.59
2022-11-07T08:38:56.000Z,283.59
2022-11-07T08:41:02.000Z,283.65
2022-11-07T08:42:29.000Z,283.77
2022-11-07T08:44:35.000Z,283.84
2022-11-07T08:46:01.000Z,283.77
2022-11-07T08:48:08.000Z,283.84
2022-11-07T08:49:34.000Z,283.84
2022-11-07T08:51:40.000Z,283.9
2022-11-07T08:53:07.000Z,283.9
2022-11-07T08:55:13.000Z,283.9
2022-11-07T08:56:39.000Z,283.96
2022-11-07T08:58:45.000Z,283.96
2022-11-07T09:00:12.000Z,284.02
2022-11-07T09:02:18.000Z,284.02
2022-11-07T09:06:20.000Z,284.09
2022-11-07T09:07:46.000Z,284.09
2022-11-07T09:09:52.000Z,284.15
2022-11-07T09:11:19.000Z,284.15
2022-11-07T09:13:25.000Z,284.15
2022-11-07T09:14:52.000Z,284.21
2022-11-07T09:16:58.000Z,284.27
2022-11-07T09:18:24.000Z,284.34
2022-11-07T09:20:30.000Z,284.34
2022-11-07T09:21:57.000Z,284.4
2022-11-07T09:24:03.000Z,284.4
2022-11-07T09:25:30.000Z,284.4
2022-11-07T09:27:36.000Z,284.34
2022-11-07T09:29:03.000Z,284.34
2022-11-07T09:31:09.000Z,284.27
2022-11-07T09:32:35.000Z,284.27
2022-11-07T09:34:49.000Z,284.27
2022-11-07T09:36:25.000Z,284.27
2022-11-07T09:38:31.000Z,284.27
2022-11-07T09:39:57.000Z,284.27
2022-11-07T09:42:03.000Z,284.27
2022-11-07T09:44:55.000Z,284.34
2022-11-07T09:46:21.000Z,284.34
2022-11-07T09:48:27.000Z,284.34
2022-11-07T09:49:54.000Z,284.4
2022-11-07T09:52:00.000Z,284.4
2022-11-07T09:53:26.000Z,284.46
2022-11-07T09:55:33.000Z,284.52
2022-11-07T09:56:59.000Z,284.52
2022-11-07T09:59:05.000Z,284.59
2022-11-07T10:00:38.000Z,284.59
2022-11-07T10:02:44.000Z,284.65
2022-11-07T10:04:11.000Z,284.65
2022-11-07T10:06:30.000Z,284.71
2022-11-07T10:07:57.000Z,284.77
2022-11-07T10:10:03.000Z,284.84
2022-11-07T10:11:30.000Z,284.9
2022-11-07T10:13:36.000Z,284.96
2022-11-07T10:15:02.000Z,285.02
2022-11-07T10:17:08.000Z,285.09
2022-11-07T10:18:35.000Z,285.15
2022-11-07T10:20:41.000Z,285.09
2022-11-07T10:23:32.000Z,285.02
2022-11-07T10:24:59.000Z,285.02
2022-11-07T10:27:05.000Z,285.09
2022-11-07T10:28:31.000Z,285.09
2022-11-07T10:30:38.000Z,285.09
2022-11-07T10:32:04.000Z,285.09
2022-11-07T10:34:10.000Z,285.15
2022-11-07T10:35:37.000Z,285.15
2022-11-07T10:37:43.000Z,285.21
2022-11-07T10:39:09.000Z,285.21
2022-11-07T10:41:15.000Z,285.21
2022-11-07T10:42:42.000Z,285.27
2022-11-07T10:44:48.000Z,285.34
2022-11-07T10:46:15.000Z,285.4
2022-11-07T10:48:21.000Z,285.46
2022-11-07T10:49:47.000Z,285.4
2022-11-07T10:51:53.000Z,285.34
2022-11-07T10:53:20.000Z,285.4
2022-11-07T10:55:26.000Z,285.34
2022-11-07T10:56:52.000Z,285.34
2022-11-07T10:58:58.000Z,285.4
2022-11-07T11:01:50.000Z,285.4
2022-11-07T11:03:16.000Z,285.4
2022-11-07T11:05:22.000Z,285.4
2022-11-07T11:06:49.000Z,285.4
2022-11-07T11:08:55.000Z,285.4
2022-11-07T11:10:21.000Z,285.46
2022-11-07T11:12:28.000Z,285.34
2022-11-07T11:13:58.000Z,285.4
2022-11-07T11:16:04.000Z,285.4
2022-11-07T11:17:31.000Z,285.4
2022-11-07T11:19:37.000Z,285.4
2022-11-07T11:21:04.000Z,285.4
2022-11-07T11:23:10.000Z,285.4
2022-11-07T11:24:37.000Z,285.4
2022-11-07T11:26:43.000Z,285.4
2022-11-07T11:28:09.000Z,285.46
2022-11-07T11:30:15.000Z,285.46
2022-11-07T11:31:42.000Z,285.52
2022-11-07T11:33:48.000Z,285.52
2022-11-07T11:35:15.000Z,285.46
2022-11-07T11:37:21.000Z,285.4
2022-11-07T11:42:11.000Z,285.4
2022-11-07T11:44:17.000Z,285.4
2022-11-07T11:45:44.000Z,285.34
2022-11-07T11:47:50.000Z,285.4
2022-11-07T11:49:16.000Z,285.4
2022-11-07T11:51:22.000Z,285.34
2022-11-07T11:52:49.000Z,285.34
2022-11-07T11:54:55.000Z,285.34
2022-11-07T11:56:21.000Z,285.34
2022-11-07T11:58:28.000Z,285.34
2022-11-07T11:59:54.000Z,285.4
2022-11-07T12:02:00.000Z,285.4
2022-11-07T12:03:27.000Z,285.4
2022-11-07T12:05:33.000Z,285.4
2022-11-07T12:06:59.000Z,285.4
2022-11-07T12:09:05.000Z,285.4
2022-11-07T12:10:32.000Z,285.4
2022-11-07T12:12:38.000Z,285.4
2022-11-07T12:14:05.000Z,285.4
2022-11-07T12:16:11.000Z,285.4
2022-11-07T12:19:02.000Z,285.4
2022-11-07T12:20:29.000Z,285.4
2022-11-07T12:22:35.000Z,285.34
2022-11-07T12:24:01.000Z,285.34
2022-11-07T12:26:07.000Z,285.4
2022-11-07T12:27:34.000Z,285.4
2022-11-07T12:29:40.000Z,285.4
2022-11-07T12:31:06.000Z,285.4
2022-11-07T12:33:12.000Z,285.4
2022-11-07T12:34:39.000Z,285.4
2022-11-07T12:36:46.000Z,285.46
2022-11-07T12:38:12.000Z,285.4
2022-11-07T12:40:18.000Z,285.4
2022-11-07T12:41:45.000Z,285.34
2022-11-07T12:43:51.000Z,285.4
2022-11-07T12:47:23.000Z,285.4
2022-11-07T12:48:50.000Z,285.52
2022-11-07T12:50:56.000Z,285.46
2022-11-07T12:52:23.000Z,285.46
2022-11-07T12:54:29.000Z,285.52
2022-11-07T12:57:20.000Z,285.52
2022-11-07T12:58:46.000Z,285.59
2022-11-07T13:00:52.000Z,285.59
2022-11-07T13:02:19.000Z,285.52
2022-11-07T13:04:25.000Z,285.52
2022-11-07T13:05:52.000Z,285.46
2022-11-07T13:07:58.000Z,285.46
2022-11-07T13:09:24.000Z,285.46
2022-11-07T13:11:30.000Z,285.52
2022-11-07T13:12:57.000Z,285.46
2022-11-07T13:15:03.000Z,285.46
2022-11-07T13:16:29.000Z,285.46
2022-11-07T13:18:36.000Z,285.46
2022-11-07T13:20:02.000Z,285.46
2022-11-07T13:22:08.000Z,285.4
2022-11-07T13:23:35.000Z,285.4
2022-11-07T13:25:41.000Z,285.46
2022-11-07T13:27:08.000Z,285.46
2022-11-07T13:29:14.000Z,285.46
2022-11-07T13:30:40.000Z,285.46
2022-11-07T13:32:46.000Z,285.4
2022-11-07T13:35:37.000Z,285.46
2022-11-07T13:37:04.000Z,285.46
2022-11-07T13:39:10.000Z,285.46
2022-11-07T13:40:37.000Z,285.46
2022-11-07T13:42:43.000Z,285.52
2022-11-07T13:44:09.000Z,285.46
2022-11-07T13:46:15.000Z,285.52
2022-11-07T13:47:42.000Z,285.52
2022-11-07T13:49:48.000Z,285.46
2022-11-07T13:51:14.000Z,285.4
2022-11-07T13:53:20.000Z,285.46
2022-11-07T13:54:47.000Z,285.46
2022-11-07T13:56:53.000Z,285.46
2022-11-07T13:58:20.000Z,285.46
2022-11-07T14:00:26.000Z,285.46
2022-11-07T14:01:52.000Z,285.46
2022-11-07T14:03:59.000Z,285.46
2022-11-07T14:05:25.000Z,285.46
2022-11-07T14:07:31.000Z,285.46
2022-11-07T14:08:58.000Z,285.46
2022-11-07T14:11:04.000Z,285.46
2022-11-07T14:13:55.000Z,285.46
2022-11-07T14:15:21.000Z,285.46
2022-11-07T14:17:27.000Z,285.46
2022-11-07T14:18:54.000Z,285.46
2022-11-07T14:21:00.000Z,285.46
2022-11-07T14:22:27.000Z,285.46
2022-11-07T14:24:33.000Z,285.46
2022-11-07T14:25:59.000Z,285.46
2022-11-07T14:28:05.000Z,285.46
2022-11-07T14:29:32.000Z,285.46
2022-11-07T14:31:38.000Z,285.4
2022-11-07T14:33:04.000Z,285.4
2022-11-07T14:35:11.000Z,285.4
2022-11-07T14:36:37.000Z,285.4
2022-11-07T14:38:43.000Z,285.4
2022-11-07T14:40:10.000Z,285.34
2022-11-07T14:42:16.000Z,285.34
2022-11-07T14:43:42.000Z,285.34
2022-11-07T14:45:49.000Z,285.34
2022-11-07T14:47:37.000Z,285.27
2022-11-07T14:49:43.000Z,285.27
2022-11-07T14:52:34.000Z,285.27
2022-11-07T14:54:01.000Z,285.27
2022-11-07T14:56:07.000Z,285.21
2022-11-07T14:57:33.000Z,285.21
2022-11-07T14:59:40.000Z,285.15
2022-11-07T15:01:06.000Z,285.21
2022-11-07T15:03:12.000Z,285.15
2022-11-07T15:04:39.000Z,285.15
2022-11-07T15:06:45.000Z,285.15
2022-11-07T15:08:11.000Z,285.15
2022-11-07T15:10:18.000Z,285.09
2022-11-07T15:11:48.000Z,285.15
2022-11-07T15:13:55.000Z,285.09
2022-11-07T15:15:21.000Z,285.09
2022-11-07T15:17:27.000Z,285.09
2022-11-07T15:18:54.000Z,285.09
2022-11-07T15:21:00.000Z,285.09
2022-11-07T15:22:26.000Z,285.02
2022-11-07T15:24:32.000Z,285.02
2022-11-07T15:25:59.000Z,285.02
2022-11-07T15:28:05.000Z,285.09
2022-11-07T15:30:56.000Z,285.02
2022-11-07T15:32:22.000Z,285.02
2022-11-07T15:34:28.000Z,284.96
2022-11-07T15:36:25.000Z,284.96
2022-11-07T15:38:31.000Z,284.96
2022-11-07T15:39:57.000Z,284.9
2022-11-07T15:42:03.000Z,284.84
2022-11-07T15:43:30.000Z,284.9
2022-11-07T15:45:36.000Z,284.84
2022-11-07T15:47:02.000Z,284.84
2022-11-07T15:49:09.000Z,284.84
2022-11-07T15:50:35.000Z,284.84
2022-11-07T15:52:41.000Z,284.77
2022-11-07T15:54:08.000Z,284.71
2022-11-07T15:56:14.000Z,284.71
2022-11-07T15:57:40.000Z,284.71
2022-11-07T15:59:47.000Z,284.71
2022-11-07T16:01:13.000Z,284.71
2022-11-07T16:03:19.000Z,284.71
2022-11-07T16:04:46.000Z,284.71
2022-11-07T16:06:52.000Z,284.71
2022-11-07T16:09:43.000Z,284.65
2022-11-07T16:11:10.000Z,284.65
2022-11-07T16:13:16.000Z,284.65
2022-11-07T16:14:43.000Z,284.59
2022-11-07T16:16:49.000Z,284.59
2022-11-07T16:18:15.000Z,284.59
2022-11-07T16:20:22.000Z,284.59
2022-11-07T16:21:49.000Z,284.59
2022-11-07T16:23:55.000Z,284.59
2022-11-07T16:25:21.000Z,284.52
2022-11-07T16:27:27.000Z,284.52
2022-11-07T16:28:54.000Z,284.52
2022-11-07T16:31:00.000Z,284.46
2022-11-07T16:32:26.000Z,284.46
2022-11-07T16:34:33.000Z,284.46
2022-11-07T16:35:59.000Z,284.52
2022-11-07T16:38:05.000Z,284.52
2022-11-07T16:39:32.000Z,284.52
2022-11-07T16:41:38.000Z,284.52
2022-11-07T16:43:04.000Z,284.46
2022-11-07T16:45:10.000Z,284.46
2022-11-07T16:48:01.000Z,284.46
2022-11-07T16:49:28.000Z,284.46
2022-11-07T16:51:34.000Z,284.46
2022-11-07T16:53:01.000Z,284.46
2022-11-07T16:55:07.000Z,284.46
2022-11-07T16:56:33.000Z,284.46
2022-11-07T16:58:39.000Z,284.4
2022-11-07T17:00:06.000Z,284.4
2022-11-07T17:02:12.000Z,284.4
2022-11-07T17:03:45.000Z,284.4
2022-11-07T17:05:51.000Z,284.4
2022-11-07T17:07:17.000Z,284.4
2022-11-07T17:09:24.000Z,284.4
2022-11-07T17:10:50.000Z,284.4
2022-11-07T17:12:56.000Z,284.4
2022-11-07T17:14:23.000Z,284.4
2022-11-07T17:16:29.000Z,284.34
2022-11-07T17:17:55.000Z,284.4
2022-11-07T17:20:06.000Z,284.34
2022-11-07T17:21:32.000Z,284.4
2022-11-07T17:23:39.000Z,284.4
2022-11-07T17:26:30.000Z,284.4
2022-11-07T17:27:56.000Z,284.34
2022-11-07T17:30:03.000Z,284.4
2022-11-07T17:31:33.000Z,284.34
2022-11-07T17:33:39.000Z,284.4
2022-11-07T17:37:29.000Z,284.4
2022-11-07T17:38:56.000Z,284.4
2022-11-07T17:41:02.000Z,284.4
2022-11-07T17:42:29.000Z,284.4
2022-11-07T17:44:41.000Z,284.4
2022-11-07T17:46:08.000Z,284.4
2022-11-07T17:48:14.000Z,284.4
2022-11-07T17:49:41.000Z,284.46
2022-11-07T17:51:47.000Z,284.46
2022-11-07T17:53:14.000Z,284.46
2022-11-07T17:55:20.000Z,284.4
2022-11-07T17:56:47.000Z,284.4
2022-11-07T17:58:53.000Z,284.4
2022-11-07T18:00:19.000Z,284.4
2022-11-07T18:02:25.000Z,284.34
2022-11-07T18:05:17.000Z,284.34
2022-11-07T18:06:43.000Z,284.34
2022-11-07T18:08:49.000Z,284.27
2022-11-07T18:10:17.000Z,284.34
2022-11-07T18:12:23.000Z,284.27
2022-11-07T18:13:50.000Z,284.27
2022-11-07T18:15:56.000Z,284.27
2022-11-07T18:17:23.000Z,284.27
2022-11-07T18:19:29.000Z,284.34
2022-11-07T18:20:55.000Z,284.34
2022-11-07T18:23:01.000Z,284.34
2022-11-07T18:24:28.000Z,284.34
2022-11-07T18:26:34.000Z,284.34
2022-11-07T18:28:00.000Z,284.4
2022-11-07T18:30:06.000Z,284.4
2022-11-07T18:31:33.000Z,284.46
2022-11-07T18:33:39.000Z,284.46
2022-11-07T18:35:06.000Z,284.4
2022-11-07T18:37:12.000Z,284.4
2022-11-07T18:38:38.000Z,284.52
2022-11-07T18:40:44.000Z,284.46
2022-11-07T18:43:36.000Z,284.46
2022-11-07T18:45:02.000Z,284.46
2022-11-07T18:47:08.000Z,284.4
2022-11-07T18:48:35.000Z,284.4
2022-11-07T18:50:41.000Z,284.34
2022-11-07T18:52:07.000Z,284.4
2022-11-07T18:54:13.000Z,284.34
2022-11-07T18:55:40.000Z,284.34
2022-11-07T18:57:46.000Z,284.27
2022-11-07T18:59:13.000Z,284.27
2022-11-07T19:01:19.000Z,284.27
2022-11-07T19:02:45.000Z,284.21
2022-11-07T19:04:51.000Z,284.21
2022-11-07T19:06:18.000Z,284.21
2022-11-07T19:08:24.000Z,284.21
2022-11-07T19:09:51.000Z,284.21
2022-11-07T19:11:57.000Z,284.15
2022-11-07T19:13:23.000Z,284.15
2022-11-07T19:15:29.000Z,284.15
2022-11-07T19:16:56.000Z,284.21
2022-11-07T19:19:02.000Z,284.09
2022-11-07T19:21:53.000Z,284.15
2022-11-07T19:23:19.000Z,284.09
2022-11-07T19:25:25.000Z,284.15
2022-11-07T19:26:52.000Z,284.21
2022-11-07T19:28:58.000Z,284.15
2022-11-07T19:30:25.000Z,284.09
2022-11-07T19:32:31.000Z,284.09
2022-11-07T19:33:57.000Z,284.15
2022-11-07T19:36:03.000Z,284.15
2022-11-07T19:37:30.000Z,284.21
2022-11-07T19:39:36.000Z,284.09
2022-11-07T19:41:02.000Z,284.09
2022-11-07T19:43:09.000Z,284.15
2022-11-07T19:44:35.000Z,284.21
2022-11-07T19:46:44.000Z,284.15
2022-11-07T19:48:11.000Z,284.15
2022-11-07T19:50:17.000Z,284.09
2022-11-07T19:51:43.000Z,284.09
2022-11-07T19:53:50.000Z,284.09
2022-11-07T19:55:16.000Z,284.09
2022-11-07T19:57:22.000Z,284.09
2022-11-07T20:00:13.000Z,284.15
2022-11-07T20:01:40.000Z,284.15
2022-11-07T20:03:46.000Z,284.15
2022-11-07T20:05:12.000Z,284.15
2022-11-07T20:07:19.000Z,284.09
2022-11-07T20:08:45.000Z,284.09
2022-11-07T20:10:51.000Z,284.02
2022-11-07T20:12:18.000Z,284.02
2022-11-07T20:14:24.000Z,284.02
2022-11-07T20:15:50.000Z,284.02
2022-11-07T20:17:56.000Z,284.02
2022-11-07T20:19:23.000Z,284.02
2022-11-07T20:21:29.000Z,284.09
2022-11-07T20:22:55.000Z,284.09
2022-11-07T20:25:02.000Z,284.02
2022-11-07T20:26:28.000Z,284.09
2022-11-07T20:28:34.000Z,284.02
2022-11-07T20:30:01.000Z,284.09
2022-11-07T20:32:07.000Z,284.02
2022-11-07T20:33:33.000Z,284.02
2022-11-07T20:35:40.000Z,284.02
2022-11-07T20:38:31.000Z,284.09
2022-11-07T20:39:58.000Z,284.09
2022-11-07T20:42:04.000Z,283.96
2022-11-07T20:43:30.000Z,283.96
2022-11-07T20:45:36.000Z,283.96
2022-11-07T20:47:03.000Z,283.96
2022-11-07T20:49:09.000Z,283.96
2022-11-07T20:50:36.000Z,283.96
2022-11-07T20:52:42.000Z,283.9
2022-11-07T20:54:09.000Z,283.9
2022-11-07T20:56:15.000Z,283.9
2022-11-07T20:57:41.000Z,283.84
2022-11-07T20:59:47.000Z,283.84
2022-11-07T21:01:14.000Z,283.84
2022-11-07T21:03:21.000Z,283.84
2022-11-07T21:04:47.000Z,283.77
2022-11-07T21:07:21.000Z,283.77
2022-11-07T21:08:48.000Z,283.71
2022-11-07T21:10:54.000Z,283.65
2022-11-07T21:12:20.000Z,283.59
2022-11-07T21:14:26.000Z,283.65
2022-11-07T21:17:17.000Z,283.65
2022-11-07T21:18:44.000Z,283.65
2022-11-07T21:20:50.000Z,283.59
2022-11-07T21:22:17.000Z,283.52
2022-11-07T21:24:23.000Z,283.46
2022-11-07T21:25:49.000Z,283.46
2022-11-07T21:27:55.000Z,283.4
2022-11-07T21:29:22.000Z,283.4
2022-11-07T21:31:33.000Z,283.34
2022-11-07T21:33:00.000Z,283.21
2022-11-07T21:35:06.000Z,283.15
2022-11-07T21:36:33.000Z,283.15
2022-11-07T21:38:39.000Z,283.15
2022-11-07T21:40:05.000Z,283.15
2022-11-07T21:42:11.000Z,283.15
2022-11-07T21:43:38.000Z,283.15
2022-11-07T21:45:44.000Z,283.09
2022-11-07T21:47:10.000Z,283.09
2022-11-07T21:49:16.000Z,282.96
2022-11-07T21:50:43.000Z,282.96
2022-11-07T21:52:49.000Z,282.9
2022-11-07T21:55:40.000Z,282.77
2022-11-07T21:57:07.000Z,282.77
2022-11-07T21:59:13.000Z,282.65
2022-11-07T22:00:40.000Z,282.65
2022-11-07T22:02:46.000Z,282.65
2022-11-07T22:04:12.000Z,282.65
2022-11-07T22:06:18.000Z,282.59
2022-11-07T22:07:45.000Z,282.52
2022-11-07T22:09:51.000Z,282.59
2022-11-07T22:11:18.000Z,282.59
2022-11-07T22:13:24.000Z,282.52
2022-11-07T22:14:50.000Z,282.52
2022-11-07T22:16:56.000Z,282.59
2022-11-07T22:18:23.000Z,282.65
2022-11-07T22:20:29.000Z,282.65
2022-11-07T22:21:55.000Z,282.65
2022-11-07T22:24:02.000Z,282.65
2022-11-07T22:25:28.000Z,282.71
2022-11-07T22:27:34.000Z,282.77
2022-11-07T22:29:01.000Z,282.84
2022-11-07T22:31:07.000Z,282.77
2022-11-07T22:33:58.000Z,282.77
2022-11-07T22:35:25.000Z,282.77
2022-11-07T22:37:31.000Z,282.77
2022-11-07T22:38:57.000Z,282.84
2022-11-07T22:41:03.000Z,282.84
2022-11-07T22:42:30.000Z,282.96
2022-11-07T22:44:36.000Z,282.9
2022-11-07T22:46:03.000Z,282.84
2022-11-07T22:48:09.000Z,282.84
2022-11-07T22:49:35.000Z,282.84
2022-11-07T22:51:41.000Z,282.84
2022-11-07T22:53:08.000Z,282.77
2022-11-07T22:55:14.000Z,282.77
2022-11-07T22:56:40.000Z,282.9
2022-11-07T22:58:47.000Z,282.9
2022-11-07T23:00:13.000Z,282.9
2022-11-07T23:02:25.000Z,283.02
2022-11-07T23:03:52.000Z,283.02
2022-11-07T23:05:58.000Z,282.9